createdAt,value
2016-05-18T00:00:34.463Z,61.66
2016-05-18T00:01:34.465Z,61.86
2016-05-18T00:02:34.500Z,61.38
2016-05-18T00:03:34.502Z,61.86
2016-05-18T00:04:34.536Z,61.95
2016-05-18T00:05:34.555Z,62.11
2016-05-18T00:06:34.416Z,62.05
2016-05-18T00:07:35.060Z,62.11
2016-05-18T00:08:34.609Z,62.78
2016-05-18T00:09:34.627Z,62.88
2016-05-18T00:10:34.646Z,62.68
2016-05-18T00:11:34.664Z,63.54
2016-05-18T00:12:34.666Z,62.97
2016-05-18T00:13:34.685Z,62.97
2016-05-18T00:14:34.719Z,63.45
2016-05-18T00:15:34.721Z,63.64
2016-05-18T00:16:34.756Z,63.73
2016-05-18T00:17:34.774Z,64.02
2016-05-18T00:18:34.793Z,63.83
2016-05-18T00:19:34.795Z,64.02
2016-05-18T00:20:34.813Z,64.4
2016-05-18T00:21:34.847Z,64.31
2016-05-18T00:22:35.037Z,64.31
2016-05-18T00:23:34.884Z,64.69
2016-05-18T00:24:34.886Z,64.5
2016-05-18T00:25:34.906Z,64.18
2016-05-18T00:26:34.767Z,65.23
2016-05-18T00:27:34.941Z,65.23
2016-05-18T00:28:34.959Z,65.13
2016-05-18T00:29:34.837Z,65.13
2016-05-18T00:30:35.012Z,65.61
2016-05-18T00:31:35.014Z,65.42
2016-05-18T00:32:34.878Z,65.33
2016-05-18T00:33:35.067Z,65.7
2016-05-18T00:34:35.069Z,65.7
2016-05-18T00:35:35.088Z,65.33
2016-05-18T00:36:35.106Z,65.7
2016-05-18T00:37:34.968Z,65.61
2016-05-18T00:38:35.144Z,65.33
2016-05-18T00:39:35.146Z,66.09
2016-05-18T00:40:35.163Z,65.61
2016-05-18T00:41:35.199Z,66.28
2016-05-18T00:42:35.060Z,66.38
2016-05-18T00:43:35.218Z,66.28
2016-05-18T00:44:35.253Z,66.94
2016-05-18T00:45:35.271Z,66.75
2016-05-18T00:46:35.274Z,66.85
2016-05-18T00:47:35.307Z,66.75
2016-05-18T00:48:35.326Z,67.04
2016-05-18T00:49:35.328Z,67.04
2016-05-18T00:50:35.191Z,66.75
2016-05-18T00:51:35.365Z,66.94
2016-05-18T00:52:35.415Z,66.72
2016-05-18T00:53:35.434Z,67.29
2016-05-18T00:54:35.420Z,67.68
2016-05-18T00:55:35.439Z,67.68
2016-05-18T00:56:35.456Z,67.77
2016-05-18T00:57:35.475Z,67.86
2016-05-18T00:58:35.509Z,67.96
2016-05-18T00:59:35.528Z,67.86
2016-05-18T01:00:35.530Z,68.63
2016-05-18T01:01:35.548Z,68.44
2016-05-18T01:02:35.411Z,68.63
2016-05-18T01:03:35.600Z,68.44
2016-05-18T01:04:35.431Z,69.1
2016-05-18T01:05:35.450Z,68.91
2016-05-18T01:06:35.641Z,68.44
2016-05-18T01:07:35.518Z,68.34
2016-05-18T01:08:35.661Z,68.34
2016-05-18T01:09:35.711Z,68.34
2016-05-18T01:10:35.697Z,69.01
2016-05-18T01:11:35.560Z,68.53
2016-05-18T01:12:35.734Z,69.39
2016-05-18T01:13:35.769Z,69.48
2016-05-18T01:14:35.771Z,69.2
2016-05-18T01:15:35.789Z,68.72
2016-05-18T01:16:35.807Z,68.91
2016-05-18T01:17:35.826Z,68.72
2016-05-18T01:18:35.844Z,69.29
2016-05-18T01:19:35.846Z,69.29
2016-05-18T01:20:35.882Z,69.1
2016-05-18T01:21:35.884Z,69.2
2016-05-18T01:22:35.918Z,69.1
2016-05-18T01:23:35.920Z,69.1
2016-05-18T01:24:35.938Z,69.2
2016-05-18T01:25:35.942Z,69.1
2016-05-18T01:26:35.975Z,69.01
2016-05-18T01:27:35.993Z,69.1
2016-05-18T01:28:36.012Z,69.01
2016-05-18T01:29:35.873Z,69.2
2016-05-18T01:30:36.048Z,69.2
2016-05-18T01:31:35.910Z,69.1
2016-05-18T01:32:36.086Z,69.2
2016-05-18T01:33:36.103Z,69.2
2016-05-18T01:34:36.137Z,69.29
2016-05-18T01:35:36.139Z,69.48
2016-05-18T01:36:36.142Z,69.48
2016-05-18T01:37:36.177Z,69.39
2016-05-18T01:38:36.194Z,69.87
2016-05-18T01:39:36.213Z,69.96
2016-05-18T01:40:36.216Z,69.58
2016-05-18T01:41:36.219Z,69.87
2016-05-18T01:42:36.252Z,69.77
2016-05-18T01:43:36.286Z,69.96
2016-05-18T01:44:36.305Z,70.06
2016-05-18T01:45:36.307Z,70.15
2016-05-18T01:46:36.310Z,70.25
2016-05-18T01:47:36.344Z,70.44
2016-05-18T01:48:36.347Z,70.34
2016-05-18T01:49:36.209Z,70.63
2016-05-18T01:50:36.399Z,70.53
2016-05-18T01:51:36.245Z,70.44
2016-05-18T01:52:36.264Z,70.53
2016-05-18T01:53:36.423Z,70.72
2016-05-18T01:54:36.472Z,71.3
2016-05-18T01:55:36.475Z,70.92
2016-05-18T01:56:36.493Z,71.26
2016-05-18T01:57:36.528Z,71.07
2016-05-18T01:58:36.530Z,70.69
2016-05-18T01:59:36.548Z,71.55
2016-05-18T02:00:36.582Z,71.55
2016-05-18T02:01:36.428Z,71.55
2016-05-18T02:02:36.588Z,71.73
2016-05-18T02:03:36.622Z,72.02
2016-05-18T02:04:36.639Z,71.64
2016-05-18T02:05:36.642Z,71.64
2016-05-18T02:06:36.661Z,71.73
2016-05-18T02:07:36.538Z,71.83
2016-05-18T02:08:36.697Z,71.36
2016-05-18T02:09:36.716Z,71.55
2016-05-18T02:10:36.733Z,71.64
2016-05-18T02:11:36.753Z,71.55
2016-05-18T02:12:36.771Z,71.26
2016-05-18T02:13:36.788Z,71.36
2016-05-18T02:14:36.792Z,71.45
2016-05-18T02:15:36.810Z,71.73
2016-05-18T02:16:36.688Z,71.83
2016-05-18T02:17:36.846Z,71.93
2016-05-18T02:18:36.865Z,71.55
2016-05-18T02:19:36.868Z,71.36
2016-05-18T02:20:36.901Z,71.93
2016-05-18T02:21:36.935Z,72.02
2016-05-18T02:22:36.938Z,72.02
2016-05-18T02:23:36.957Z,72.41
2016-05-18T02:24:36.975Z,72.02
2016-05-18T02:25:36.993Z,72.12
2016-05-18T02:26:36.996Z,72.31
2016-05-18T02:27:37.029Z,72.41
2016-05-18T02:28:37.032Z,72.97
2016-05-18T02:29:37.050Z,73.07
2016-05-18T02:30:37.070Z,72.69
2016-05-18T02:31:37.087Z,72.78
2016-05-18T02:32:37.106Z,73.17
2016-05-18T02:33:37.139Z,73.32
2016-05-18T02:34:37.142Z,73.13
2016-05-18T02:35:37.161Z,73.26
2016-05-18T02:36:37.164Z,73.32
2016-05-18T02:37:37.181Z,73.22
2016-05-18T02:38:37.200Z,73.41
2016-05-18T02:39:37.062Z,73.36
2016-05-18T02:40:37.221Z,73.22
2016-05-18T02:41:37.255Z,73.13
2016-05-18T02:42:37.117Z,73.32
2016-05-18T02:43:37.291Z,73.03
2016-05-18T02:44:37.310Z,73.22
2016-05-18T02:45:37.327Z,73.32
2016-05-18T02:46:37.331Z,73.32
2016-05-18T02:47:37.365Z,73.32
2016-05-18T02:48:37.383Z,73.45
2016-05-18T02:49:37.401Z,73.22
2016-05-18T02:50:37.405Z,73.51
2016-05-18T02:51:37.423Z,73.41
2016-05-18T02:52:37.440Z,73.32
2016-05-18T02:53:37.460Z,73.32
2016-05-18T02:54:37.477Z,73.8
2016-05-18T02:55:37.495Z,73.89
2016-05-18T02:56:37.514Z,74.18
2016-05-18T02:57:37.517Z,74.27
2016-05-18T02:58:37.551Z,74.27
2016-05-18T02:59:37.569Z,74.18
2016-05-18T03:00:37.572Z,74.27
2016-05-18T03:01:37.590Z,74.18
2016-05-18T03:02:37.623Z,74.18
2016-05-18T03:03:37.470Z,74.08
2016-05-18T03:04:37.645Z,73.89
2016-05-18T03:05:37.664Z,74.08
2016-05-18T03:06:37.681Z,74.37
2016-05-18T03:07:37.684Z,73.89
2016-05-18T03:08:37.702Z,73.89
2016-05-18T03:09:37.736Z,73.7
2016-05-18T03:10:37.739Z,73.7
2016-05-18T03:11:37.757Z,73.7
2016-05-18T03:12:37.776Z,73.41
2016-05-18T03:13:37.794Z,73.22
2016-05-18T03:14:37.812Z,73.32
2016-05-18T03:15:37.830Z,73.32
2016-05-18T03:16:37.849Z,73.22
2016-05-18T03:17:37.852Z,73.51
2016-05-18T03:18:37.713Z,73.41
2016-05-18T03:19:37.889Z,73.32
2016-05-18T03:20:37.907Z,73.03
2016-05-18T03:21:37.909Z,73.22
2016-05-18T03:22:37.943Z,73.26
2016-05-18T03:23:37.945Z,73.51
2016-05-18T03:24:37.980Z,73.32
2016-05-18T03:25:37.998Z,73.41
2016-05-18T03:26:38.017Z,73.32
2016-05-18T03:27:38.020Z,73.32
2016-05-18T03:28:38.053Z,73.22
2016-05-18T03:29:38.056Z,73.32
2016-05-18T03:30:38.074Z,73.51
2016-05-18T03:31:37.937Z,73.51
2016-05-18T03:32:38.111Z,73.32
2016-05-18T03:33:38.114Z,73.36
2016-05-18T03:34:38.147Z,73.51
2016-05-18T03:35:38.009Z,73.32
2016-05-18T03:36:38.028Z,73.32
2016-05-18T03:37:38.186Z,73.32
2016-05-18T03:38:38.206Z,73.03
2016-05-18T03:39:38.222Z,73.22
2016-05-18T03:40:38.241Z,73.32
2016-05-18T03:41:38.260Z,73.13
2016-05-18T03:42:38.294Z,73.41
2016-05-18T03:43:38.297Z,73.32
2016-05-18T03:44:38.159Z,73.32
2016-05-18T03:45:38.333Z,73.22
2016-05-18T03:46:38.336Z,73.22
2016-05-18T03:47:38.370Z,73.32
2016-05-18T03:48:38.372Z,73.61
2016-05-18T03:49:38.375Z,73.41
2016-05-18T03:50:38.410Z,73.51
2016-05-18T03:51:38.287Z,73.51
2016-05-18T03:52:38.290Z,73.32
2016-05-18T03:53:38.792Z,73.41
2016-05-18T03:54:38.468Z,73.22
2016-05-18T03:55:38.485Z,73.36
2016-05-18T03:56:38.504Z,73.22
2016-05-18T03:57:38.522Z,73.55
2016-05-18T03:58:38.540Z,73.55
2016-05-18T03:59:38.559Z,73.36
2016-05-18T04:00:38.561Z,73.36
2016-05-18T04:01:38.579Z,73.36
2016-05-18T04:02:38.598Z,73.36
2016-05-18T04:03:38.632Z,73.26
2016-05-18T04:04:38.494Z,73.55
2016-05-18T04:05:38.668Z,73.45
2016-05-18T04:06:38.718Z,73.45
2016-05-18T04:07:38.705Z,73.36
2016-05-18T04:08:38.583Z,73.45
2016-05-18T04:09:38.773Z,73.55
2016-05-18T04:10:38.728Z,73.45
2016-05-18T04:11:38.763Z,73.26
2016-05-18T04:12:38.766Z,73.36
2016-05-18T04:13:38.784Z,72.97
2016-05-18T04:14:38.849Z,73.45
2016-05-18T04:15:38.664Z,73.26
2016-05-18T04:16:38.854Z,73.45
2016-05-18T04:17:38.888Z,72.97
2016-05-18T04:18:38.719Z,73.36
2016-05-18T04:19:38.893Z,73.26
2016-05-18T04:20:38.897Z,73.17
2016-05-18T04:21:38.915Z,72.97
2016-05-18T04:22:38.949Z,73.45
2016-05-18T04:23:38.810Z,73.45
2016-05-18T04:24:38.969Z,73.65
2016-05-18T04:25:38.988Z,73.36
2016-05-18T04:26:39.006Z,73.65
2016-05-18T04:27:39.025Z,73.45
2016-05-18T04:28:39.043Z,73.36
2016-05-18T04:29:39.076Z,73.36
2016-05-18T04:30:39.079Z,73.55
2016-05-18T04:31:39.097Z,73.36
2016-05-18T04:32:39.115Z,73.45
2016-05-18T04:33:38.978Z,73.17
2016-05-18T04:34:39.153Z,72.97
2016-05-18T04:35:39.171Z,72.92
2016-05-18T04:36:39.174Z,73.26
2016-05-18T04:37:39.192Z,73.26
2016-05-18T04:38:39.523Z,73.01
2016-05-18T04:39:39.229Z,72.72
2016-05-18T04:40:39.231Z,73.01
2016-05-18T04:41:39.265Z,72.92
2016-05-18T04:42:39.283Z,72.82
2016-05-18T04:43:39.286Z,72.72
2016-05-18T04:44:39.320Z,72.72
2016-05-18T04:45:39.323Z,72.72
2016-05-18T04:46:39.341Z,72.53
2016-05-18T04:47:39.344Z,72.53
2016-05-18T04:48:39.221Z,72.72
2016-05-18T04:49:39.396Z,72.72
2016-05-18T04:50:39.414Z,72.72
2016-05-18T04:51:39.417Z,72.72
2016-05-18T04:52:39.452Z,72.72
2016-05-18T04:53:39.469Z,72.72
2016-05-18T04:54:39.472Z,72.82
2016-05-18T04:55:39.349Z,72.72
2016-05-18T04:56:39.524Z,72.44
2016-05-18T04:57:39.542Z,72.34
2016-05-18T04:58:39.546Z,72.44
2016-05-18T04:59:39.563Z,72.63
2016-05-18T05:00:39.598Z,72.25
2016-05-18T05:01:39.601Z,72.16
2016-05-18T05:02:39.618Z,72.34
2016-05-18T05:03:39.621Z,72.25
2016-05-18T05:04:39.670Z,72.34
2016-05-18T05:05:39.673Z,72.06
2016-05-18T05:06:39.692Z,71.43
2016-05-18T05:07:39.709Z,71.91
2016-05-18T05:08:39.712Z,71.81
2016-05-18T05:09:39.732Z,71.91
2016-05-18T05:10:39.749Z,71.81
2016-05-18T05:11:39.767Z,71.52
2016-05-18T05:12:39.817Z,71.91
2016-05-18T05:13:39.851Z,71.52
2016-05-18T05:14:39.838Z,71.91
2016-05-18T05:15:39.888Z,71.72
2016-05-18T05:16:39.719Z,71.72
2016-05-18T05:17:39.894Z,71.52
2016-05-18T05:18:39.897Z,71.62
2016-05-18T05:19:39.914Z,71.23
2016-05-18T05:20:39.932Z,71.72
2016-05-18T05:21:39.966Z,71.23
2016-05-18T05:22:39.954Z,71.14
2016-05-18T05:23:40.332Z,71.23
2016-05-18T05:24:40.006Z,71.14
2016-05-18T05:25:40.008Z,70.86
2016-05-18T05:26:39.886Z,71.23
2016-05-18T05:27:40.045Z,70.51
2016-05-18T05:28:40.064Z,71.08
2016-05-18T05:29:40.082Z,70.61
2016-05-18T05:30:40.115Z,70.7
2016-05-18T05:31:40.103Z,70.42
2016-05-18T05:32:40.137Z,70.42
2016-05-18T05:33:40.155Z,70.51
2016-05-18T05:34:40.189Z,69.65
2016-05-18T05:35:40.192Z,69.65
2016-05-18T05:36:40.209Z,70.03
2016-05-18T05:37:40.588Z,69.93
2016-05-18T05:38:40.340Z,69.93
2016-05-18T05:39:40.265Z,69.65
2016-05-18T05:40:40.284Z,69.56
2016-05-18T05:41:40.301Z,69.08
2016-05-18T05:42:40.304Z,68.88
2016-05-18T05:43:40.338Z,69.17
2016-05-18T05:44:40.372Z,68.73
2016-05-18T05:45:40.375Z,68.63
2016-05-18T05:46:40.236Z,68.35
2016-05-18T05:47:40.411Z,67.87
2016-05-18T05:48:40.414Z,67.58
2016-05-18T05:49:40.432Z,67.58
2016-05-18T05:50:40.310Z,67.58
2016-05-18T05:51:40.469Z,67.77
2016-05-18T05:52:40.815Z,67.49
2016-05-18T05:53:40.990Z,66.82
2016-05-18T05:54:40.540Z,67.21
2016-05-18T05:55:40.558Z,67.01
2016-05-18T05:56:40.561Z,66.92
2016-05-18T05:57:40.595Z,66.72
2016-05-18T05:58:40.613Z,66.53
2016-05-18T05:59:40.615Z,66.82
2016-05-18T06:00:40.634Z,66.47
2016-05-18T06:01:40.652Z,66.28
2016-05-18T06:02:40.671Z,65.71
2016-05-18T06:03:40.704Z,65.71
2016-05-18T06:04:40.723Z,66
2016-05-18T06:05:40.726Z,65.52
2016-05-18T06:06:40.759Z,65.23
2016-05-18T06:07:41.137Z,65.33
2016-05-18T06:08:40.796Z,65.14
2016-05-18T06:09:40.798Z,64.85
2016-05-18T06:10:40.817Z,64.37
2016-05-18T06:11:40.851Z,64.85
2016-05-18T06:12:40.853Z,64.65
2016-05-18T06:13:40.872Z,64.65
2016-05-18T06:14:40.889Z,64.75
2016-05-18T06:15:40.924Z,64.75
2016-05-18T06:16:40.928Z,64.65
2016-05-18T06:17:40.945Z,64.37
2016-05-18T06:18:40.963Z,64.69
2016-05-18T06:19:40.982Z,64.31
2016-05-18T06:20:41.016Z,64.02
2016-05-18T06:21:41.034Z,64.12
2016-05-18T06:22:41.052Z,64.22
2016-05-18T06:23:41.071Z,64.12
2016-05-18T06:24:41.074Z,63.64
2016-05-18T06:25:41.107Z,63.54
2016-05-18T06:26:41.126Z,63.26
2016-05-18T06:27:41.144Z,63.93
2016-05-18T06:28:40.990Z,63.83
2016-05-18T06:29:41.165Z,63.26
2016-05-18T06:30:41.996Z,62.81
2016-05-18T06:31:41.217Z,62.49
2016-05-18T06:32:41.235Z,62.9
2016-05-18T06:33:41.254Z,62.71
2016-05-18T06:34:41.257Z,61.95
2016-05-18T06:35:41.291Z,61.38
2016-05-18T06:36:41.309Z,61.47
2016-05-18T06:37:41.312Z,61.47
2016-05-18T06:38:41.345Z,61.85
2016-05-18T06:39:41.364Z,61.69
2016-05-18T06:40:41.585Z,61.12
2016-05-18T06:41:41.417Z,60.83
2016-05-18T06:42:41.419Z,60.16
2016-05-18T06:43:41.436Z,60.35
2016-05-18T06:44:41.455Z,60.64
2016-05-18T06:45:41.630Z,60.83
2016-05-18T06:46:41.492Z,60.55
2016-05-18T06:47:41.510Z,59.91
2016-05-18T06:48:41.545Z,59.4
2016-05-18T06:49:41.391Z,59.23
2016-05-18T06:50:41.409Z,58.37
2016-05-18T06:51:41.584Z,57.7
2016-05-18T06:52:41.602Z,57.99
2016-05-18T06:53:41.620Z,57.9
2016-05-18T06:54:41.655Z,57.61
2016-05-18T06:55:42.110Z,57.32
2016-05-18T06:56:41.691Z,57.23
2016-05-18T06:57:41.710Z,56.75
2016-05-18T06:58:41.743Z,56.65
2016-05-18T06:59:41.761Z,56.56
2016-05-18T07:00:41.764Z,56.46
2016-05-18T07:01:41.798Z,56.75
2016-05-18T07:02:41.848Z,56.56
2016-05-18T07:03:41.851Z,56.65
2016-05-18T07:04:41.853Z,56.87
2016-05-18T07:05:41.871Z,56.65
2016-05-18T07:06:41.874Z,56.3
2016-05-18T07:07:41.907Z,56.01
2016-05-18T07:08:41.817Z,56.1
2016-05-18T07:09:41.945Z,56.01
2016-05-18T07:10:41.870Z,56.39
2016-05-18T07:11:42.012Z,56.01
2016-05-18T07:12:41.890Z,56.01
2016-05-18T07:13:42.080Z,56.1
2016-05-18T07:14:42.084Z,56.3
2016-05-18T07:15:42.086Z,55.82
2016-05-18T07:16:42.073Z,56.49
2016-05-18T07:17:42.106Z,56.59
2016-05-18T07:18:42.125Z,55.79
2016-05-18T07:19:42.144Z,56.01
2016-05-18T07:20:42.161Z,56.49
2016-05-18T07:21:42.180Z,56.3
2016-05-18T07:22:42.214Z,55.73
2016-05-18T07:23:42.716Z,55.91
2016-05-18T07:24:42.094Z,56.01
2016-05-18T07:25:42.269Z,55.34
2016-05-18T07:26:42.303Z,55.82
2016-05-18T07:27:42.305Z,55.82
2016-05-18T07:28:42.355Z,55.91
2016-05-18T07:29:42.342Z,55.53
2016-05-18T07:30:42.361Z,55.94
2016-05-18T07:31:42.380Z,55.56
2016-05-18T07:32:42.397Z,55.46
2016-05-18T07:33:42.415Z,55.36
2016-05-18T07:34:42.449Z,55.75
2016-05-18T07:35:42.468Z,54.89
2016-05-18T07:36:42.486Z,54.79
2016-05-18T07:37:42.348Z,54.79
2016-05-18T07:38:42.538Z,54.6
2016-05-18T07:39:42.400Z,54.79
2016-05-18T07:40:42.513Z,54.6
2016-05-18T07:41:42.593Z,54.79
2016-05-18T07:42:42.612Z,54.32
2016-05-18T07:43:42.629Z,54.12
2016-05-18T07:44:42.836Z,54.03
2016-05-18T07:45:42.667Z,54.6
2016-05-18T07:46:42.701Z,54.32
2016-05-18T07:47:42.719Z,54.41
2016-05-18T07:48:42.722Z,54.79
2016-05-18T07:49:42.755Z,54.41
2016-05-18T07:50:42.789Z,54.41
2016-05-18T07:51:42.792Z,54.7
2016-05-18T07:52:42.825Z,54.41
2016-05-18T07:53:42.828Z,54.99
2016-05-18T07:54:42.847Z,54.7
2016-05-18T07:55:42.866Z,54.5
2016-05-18T07:56:42.883Z,54.41
2016-05-18T07:57:42.917Z,54.6
2016-05-18T07:58:42.919Z,54.89
2016-05-18T07:59:42.783Z,54.32
2016-05-18T08:00:42.973Z,54.41
2016-05-18T08:01:43.007Z,54.41
2016-05-18T08:02:43.010Z,54.6
2016-05-18T08:03:43.027Z,54.6
2016-05-18T08:04:43.061Z,55.08
2016-05-18T08:05:42.908Z,54.89
2016-05-18T08:06:43.113Z,54.41
2016-05-18T08:07:43.148Z,54.99
2016-05-18T08:08:43.619Z,55.36
2016-05-18T08:09:42.997Z,55.56
2016-05-18T08:10:43.234Z,55.65
2016-05-18T08:11:43.237Z,55.65
2016-05-18T08:12:43.270Z,55.65
2016-05-18T08:13:43.085Z,55.65
2016-05-18T08:14:43.276Z,55.65
2016-05-18T08:15:43.262Z,54.99
2016-05-18T08:16:43.312Z,54.82
2016-05-18T08:17:43.314Z,54.44
2016-05-18T08:18:43.333Z,54.32
2016-05-18T08:19:43.258Z,54.7
2016-05-18T08:20:43.386Z,54.44
2016-05-18T08:21:43.389Z,54.34
2016-05-18T08:22:43.282Z,54.53
2016-05-18T08:23:43.753Z,54.44
2016-05-18T08:24:43.459Z,54.82
2016-05-18T08:25:43.478Z,54.44
2016-05-18T08:26:43.511Z,54.53
2016-05-18T08:27:43.540Z,54.53
2016-05-18T08:28:43.601Z,54.72
2016-05-18T08:29:43.661Z,53.96
2016-05-18T08:30:43.722Z,54.15
2016-05-18T08:31:43.782Z,54.34
2016-05-18T08:32:43.695Z,54.44
2016-05-18T08:33:43.869Z,53.58
2016-05-18T08:34:43.920Z,53.58
2016-05-18T08:35:43.952Z,53.77
2016-05-18T08:36:43.987Z,53.09
2016-05-18T08:37:44.033Z,53.6
2016-05-18T08:38:44.276Z,53.58
2016-05-18T08:39:44.065Z,52.74
2016-05-18T08:40:44.088Z,53.22
2016-05-18T08:41:44.128Z,53.03
2016-05-18T08:42:44.151Z,53.58
2016-05-18T08:43:44.172Z,53.58
2016-05-18T08:44:44.193Z,53.22
2016-05-18T08:45:44.198Z,53.6
2016-05-18T08:46:44.234Z,53.5
2016-05-18T08:47:44.253Z,53.5
2016-05-18T08:48:44.117Z,53.31
2016-05-18T08:49:44.323Z,52.74
2016-05-18T08:50:44.342Z,52.55
2016-05-18T08:51:44.346Z,52.19
2016-05-18T08:52:44.224Z,52.16
2016-05-18T08:53:44.398Z,52.57
2016-05-18T08:54:44.464Z,52.07
2016-05-18T08:55:44.467Z,51.9
2016-05-18T08:56:44.313Z,51.32
2016-05-18T08:57:44.316Z,51.23
2016-05-18T08:58:44.490Z,51.23
2016-05-18T08:59:44.508Z,51.61
2016-05-18T09:00:44.433Z,51.32
2016-05-18T09:01:44.591Z,50.75
2016-05-18T09:02:44.735Z,49.98
2016-05-18T09:03:44.629Z,50.94
2016-05-18T09:04:44.725Z,50.46
2016-05-18T09:05:44.680Z,49.98
2016-05-18T09:06:44.730Z,49.98
2016-05-18T09:07:44.685Z,50.27
2016-05-18T09:08:44.735Z,50.08
2016-05-18T09:09:44.723Z,49.72
2016-05-18T09:10:44.616Z,49.43
2016-05-18T09:11:44.775Z,49.24
2016-05-18T09:12:44.668Z,49.62
2016-05-18T09:13:44.812Z,48.95
2016-05-18T09:14:44.829Z,48.47
2016-05-18T09:15:44.864Z,47.8
2016-05-18T09:16:44.898Z,47.89
2016-05-18T09:17:44.901Z,48.18
2016-05-18T09:18:44.934Z,47.03
2016-05-18T09:19:44.937Z,47.15
2016-05-18T09:20:44.955Z,46.28
2016-05-18T09:21:44.973Z,46.48
2016-05-18T09:22:45.539Z,46.58
2016-05-18T09:23:45.026Z,45.52
2016-05-18T09:24:45.060Z,45.71
2016-05-18T09:25:45.078Z,46.09
2016-05-18T09:26:45.097Z,45.32
2016-05-18T09:27:45.114Z,45.14
2016-05-18T09:28:45.133Z,44.84
2016-05-18T09:29:45.151Z,45.04
2016-05-18T09:30:45.169Z,44.37
2016-05-18T09:31:45.188Z,44.56
2016-05-18T09:32:45.066Z,45.04
2016-05-18T09:33:45.084Z,45.14
2016-05-18T09:34:45.258Z,45.23
2016-05-18T09:35:45.293Z,45.14
2016-05-18T09:36:45.310Z,45.23
2016-05-18T09:37:45.516Z,45.35
2016-05-18T09:38:45.394Z,44.96
2016-05-18T09:39:45.366Z,45.06
2016-05-18T09:40:45.399Z,44.38
2016-05-18T09:41:45.434Z,43.52
2016-05-18T09:42:45.436Z,43.07
2016-05-18T09:43:45.454Z,42.49
2016-05-18T09:44:45.489Z,42
2016-05-18T09:45:45.492Z,41.91
2016-05-18T09:46:45.509Z,42.77
2016-05-18T09:47:45.543Z,41.91
2016-05-18T09:48:45.562Z,41.55
2016-05-18T09:49:45.611Z,41.06
2016-05-18T09:50:45.630Z,40.88
2016-05-18T09:51:45.476Z,40.78
2016-05-18T09:52:45.667Z,40.68
2016-05-18T09:53:45.731Z,40.41
2016-05-18T09:54:45.734Z,40.2
2016-05-18T09:55:45.769Z,39.45
2016-05-18T09:56:45.772Z,38.97
2016-05-18T09:57:45.805Z,38.87
2016-05-18T09:58:45.855Z,39.24
2016-05-18T09:59:45.857Z,38.97
2016-05-18T10:00:45.860Z,38.66
2016-05-18T10:01:45.894Z,38.78
2016-05-18T10:02:45.897Z,38.85
2016-05-18T10:03:45.915Z,38.95
2016-05-18T10:04:45.933Z,38.2
2016-05-18T10:05:45.952Z,37.72
2016-05-18T10:06:45.985Z,37.91
2016-05-18T10:07:45.988Z,38.1
2016-05-18T10:08:45.913Z,37.72
2016-05-18T10:09:46.040Z,37.62
2016-05-18T10:10:46.059Z,37.81
2016-05-18T10:11:46.077Z,38.1
2016-05-18T10:12:46.095Z,37.34
2016-05-18T10:13:46.129Z,36.18
2016-05-18T10:14:46.148Z,35.6
2016-05-18T10:15:46.181Z,35.31
2016-05-18T10:16:46.184Z,34.64
2016-05-18T10:17:46.234Z,34.54
2016-05-18T10:18:46.096Z,33.98
2016-05-18T10:19:46.270Z,33.21
2016-05-18T10:20:46.304Z,32.44
2016-05-18T10:21:46.323Z,33.02
2016-05-18T10:22:46.341Z,33.31
2016-05-18T10:23:46.359Z,33.21
2016-05-18T10:24:46.378Z,33.21
2016-05-18T10:25:46.411Z,33.69
2016-05-18T10:26:46.258Z,33.69
2016-05-18T10:27:46.448Z,32.81
2016-05-18T10:28:46.466Z,33.2
2016-05-18T10:29:46.328Z,33.1
2016-05-18T10:30:46.503Z,33.1
2016-05-18T10:31:46.537Z,33.2
2016-05-18T10:32:46.555Z,33.2
2016-05-18T10:33:46.574Z,32.54
2016-05-18T10:34:46.608Z,33.12
2016-05-18T10:36:46.675Z,31.98
2016-05-18T10:37:46.677Z,31.78
2016-05-18T10:38:47.243Z,31.01
2016-05-18T10:39:46.715Z,31.11
2016-05-18T10:40:46.733Z,30.91
2016-05-18T10:41:46.627Z,29.86
2016-05-18T10:42:46.801Z,28.51
2016-05-18T10:43:46.851Z,28.22
2016-05-18T10:44:46.869Z,28.22
2016-05-18T10:45:46.887Z,28.8
2016-05-18T10:46:46.921Z,29.28
2016-05-18T10:47:46.909Z,28.61
2016-05-18T10:48:46.958Z,29.17
2016-05-18T10:49:46.820Z,29.36
2016-05-18T10:50:46.994Z,28.88
2016-05-18T10:51:46.966Z,28.88
2016-05-18T10:52:47.000Z,29.07
2016-05-18T10:53:46.878Z,28.97
2016-05-18T10:54:47.068Z,29.28
2016-05-18T10:55:47.070Z,29.46
2016-05-18T10:56:46.964Z,29.46
2016-05-18T10:57:47.107Z,28.78
2016-05-18T10:58:47.156Z,29.17
2016-05-18T10:59:47.175Z,28.69
2016-05-18T11:00:47.209Z,28.78
2016-05-18T11:01:47.072Z,28.78
2016-05-18T11:02:47.230Z,28.69
2016-05-18T11:03:47.264Z,28.4
2016-05-18T11:04:47.282Z,28.11
2016-05-18T11:05:47.316Z,28.4
2016-05-18T11:06:47.319Z,28.49
2016-05-18T11:07:47.353Z,28.4
2016-05-18T11:08:47.746Z,28.69
2016-05-18T11:09:47.388Z,28.3
2016-05-18T11:10:47.424Z,27.92
2016-05-18T11:11:47.441Z,27.92
2016-05-18T11:12:47.444Z,28.4
2016-05-18T11:13:47.494Z,28.2
2016-05-18T11:14:47.512Z,28.38
2016-05-18T11:15:47.514Z,28.38
2016-05-18T11:16:47.533Z,28.77
2016-05-18T11:17:47.567Z,28.48
2016-05-18T11:18:47.585Z,28.77
2016-05-18T11:19:47.603Z,29.24
2016-05-18T11:20:47.481Z,28.96
2016-05-18T11:21:47.656Z,29.43
2016-05-18T11:22:47.674Z,29.35
2016-05-18T11:23:47.598Z,29.15
2016-05-18T11:24:47.773Z,29.72
2016-05-18T11:25:47.745Z,30.02
2016-05-18T11:26:47.622Z,29.83
2016-05-18T11:27:47.642Z,29.33
2016-05-18T11:28:47.815Z,29.15
2016-05-18T11:29:47.833Z,29.24
2016-05-18T11:30:47.899Z,29.81
2016-05-18T11:31:47.917Z,29.62
2016-05-18T11:32:47.935Z,28.56
2016-05-18T11:33:47.922Z,28.95
2016-05-18T11:34:47.956Z,28.95
2016-05-18T11:35:47.975Z,29.04
2016-05-18T11:36:48.008Z,29.43
2016-05-18T11:37:48.027Z,29.62
2016-05-18T11:38:48.061Z,29.24
2016-05-18T11:39:48.079Z,28.85
2016-05-18T11:40:48.113Z,29.43
2016-05-18T11:41:48.100Z,29.22
2016-05-18T11:42:48.150Z,29.51
2016-05-18T11:43:48.137Z,30.28
2016-05-18T11:44:48.171Z,29.8
2016-05-18T11:45:48.189Z,29.81
2016-05-18T11:46:48.238Z,30.28
2016-05-18T11:47:48.241Z,29.81
2016-05-18T11:48:48.259Z,30
2016-05-18T11:49:48.279Z,29.91
2016-05-18T11:50:48.296Z,29.52
2016-05-18T11:51:48.330Z,29.93
2016-05-18T11:52:48.193Z,29.63
2016-05-18T11:53:48.789Z,29.15
2016-05-18T11:54:48.385Z,28.58
2016-05-18T11:55:48.419Z,29.06
2016-05-18T11:56:48.281Z,28.19
2016-05-18T11:57:48.456Z,27.61
2016-05-18T11:58:48.489Z,27.91
2016-05-18T11:59:48.508Z,28.09
2016-05-18T12:00:48.542Z,28.59
2016-05-18T12:01:48.403Z,28.4
2016-05-18T12:02:48.578Z,28.4
2016-05-18T12:03:48.597Z,28.02
2016-05-18T12:04:48.616Z,28.78
2016-05-18T12:05:48.633Z,28.49
2016-05-18T12:06:48.652Z,28.59
2016-05-18T12:07:48.670Z,27.34
2016-05-18T12:08:48.719Z,27.24
2016-05-18T12:09:48.722Z,27.44
2016-05-18T12:10:48.757Z,27.62
2016-05-18T12:11:48.806Z,28.2
2016-05-18T12:12:48.808Z,28.3
2016-05-18T12:13:48.827Z,27.92
2016-05-18T12:14:48.892Z,28.59
2016-05-18T12:15:48.895Z,28.59
2016-05-18T12:16:48.898Z,29.17
2016-05-18T12:17:48.978Z,29.94
2016-05-18T12:18:48.935Z,29.55
2016-05-18T12:19:48.984Z,29.46
2016-05-18T12:20:49.033Z,29.46
2016-05-18T12:21:49.037Z,29.17
2016-05-18T12:22:49.054Z,29.17
2016-05-18T12:23:49.353Z,29.27
2016-05-18T12:24:49.107Z,28.8
2016-05-18T12:25:48.953Z,29.18
2016-05-18T12:26:49.112Z,29.57
2016-05-18T12:27:49.130Z,28.22
2016-05-18T12:28:49.023Z,27.75
2016-05-18T12:29:49.026Z,27.56
2016-05-18T12:30:49.216Z,27.46
2016-05-18T12:31:49.219Z,27.37
2016-05-18T12:32:49.253Z,27.86
2016-05-18T12:33:49.255Z,27.48
2016-05-18T12:34:49.306Z,27
2016-05-18T12:35:49.183Z,27.11
2016-05-18T12:36:49.341Z,27.59
2016-05-18T12:37:49.376Z,27.01
2016-05-18T12:38:49.457Z,26.9
2016-05-18T12:39:49.412Z,26.61
2016-05-18T12:40:49.446Z,27.09
2016-05-18T12:41:49.480Z,27.46
2016-05-18T12:42:49.483Z,27.85
2016-05-18T12:43:49.501Z,27.96
2016-05-18T12:44:49.519Z,27.09
2016-05-18T12:45:49.538Z,26.89
2016-05-18T12:46:49.572Z,27.17
2016-05-18T12:47:49.590Z,26.89
2016-05-18T12:48:49.623Z,27.08
2016-05-18T12:49:49.658Z,26.79
2016-05-18T12:50:49.504Z,27.08
2016-05-18T12:51:49.679Z,27.17
2016-05-18T12:52:49.713Z,27.08
2016-05-18T12:53:50.122Z,27.56
2016-05-18T12:54:49.750Z,27.85
2016-05-18T12:55:49.768Z,27.66
2016-05-18T12:56:49.802Z,27.55